Time;durP1;ratioP1;P1;durP2;ratioP2;P2;SDS_P1;SDS_P2;PMS_P1;PMS_P2;Temp;Humidity;BMP_temperature;BMP_pressure;BME280_temperature;BME280_humidity;BME280_pressure;Samples;Min_cycle;Max_cycle;Signal;HPM_P1;HPM_P2
2023/07/19 00:02:01;;;;;;;9.75;3.83;;;;;;;15.35;100.00;100769.44;5027725;28;20497;-63
2023/07/19 00:04:28;;;;;;;9.15;3.75;;;;;;;15.30;100.00;100770.03;5028359;28;20042;-63
2023/07/19 00:06:55;;;;;;;10.20;4.20;;;;;;;15.31;100.00;100760.03;5028672;28;20053;-63
2023/07/19 00:09:21;;;;;;;6.20;3.58;;;;;;;15.32;100.00;100767.94;5027571;28;20038;-62
2023/07/19 00:11:49;;;;;;;8.93;3.92;;;;;;;15.29;100.00;100762.94;5028999;28;20057;-63
2023/07/19 00:14:15;;;;;;;7.35;3.50;;;;;;;15.28;100.00;100761.25;5028473;28;20046;-64
2023/07/19 00:16:42;;;;;;;8.68;3.28;;;;;;;15.23;100.00;100758.31;5027139;28;20069;-63
2023/07/19 00:19:09;;;;;;;7.75;3.28;;;;;;;15.21;100.00;100757.66;5027311;28;20045;-64
2023/07/19 00:21:47;;;;;;;5.25;2.83;;;;;;;15.18;100.00;100750.75;5027488;28;20062;-64
2023/07/19 00:24:14;;;;;;;6.70;3.20;;;;;;;15.14;100.00;100746.75;5027803;28;20057;-64
2023/07/19 00:26:41;;;;;;;8.88;3.03;;;;;;;15.16;100.00;100749.28;5028044;28;20100;-63
2023/07/19 00:29:08;;;;;;;8.52;3.83;;;;;;;15.11;100.00;100749.81;5028645;28;20052;-63
2023/07/19 00:31:34;;;;;;;6.80;3.15;;;;;;;15.08;100.00;100752.91;5039750;28;20045;-63
2023/07/19 00:34:01;;;;;;;6.00;2.83;;;;;;;15.06;100.00;100746.88;5046538;28;20053;-64
2023/07/19 00:36:28;;;;;;;5.78;2.70;;;;;;;15.02;100.00;100742.88;5046956;28;20049;-62
2023/07/19 00:38:54;;;;;;;4.50;2.80;;;;;;;14.99;100.00;100744.09;5047118;28;20084;-62
2023/07/19 00:41:21;;;;;;;9.88;2.67;;;;;;;14.93;100.00;100749.41;5061452;28;20084;-62
2023/07/19 00:43:48;;;;;;;3.90;2.55;;;;;;;14.88;100.00;100741.03;5046421;28;20056;-62
2023/07/19 00:46:15;;;;;;;4.70;2.60;;;;;;;14.89;100.00;100740.00;5046980;28;20453;-64
2023/07/19 00:48:42;;;;;;;5.90;2.90;;;;;;;14.86;100.00;100732.28;5048369;28;20046;-63
2023/07/19 00:51:09;;;;;;;7.63;2.35;;;;;;;14.81;100.00;100731.97;5048808;28;20072;-64
2023/07/19 00:53:38;;;;;;;5.78;2.45;;;;;;;14.76;100.00;100721.75;5047634;28;20049;-63
2023/07/19 00:56:07;;;;;;;8.30;2.92;;;;;;;14.74;100.00;100727.34;5045979;28;20041;-62
2023/07/19 00:58:35;;;;;;;6.60;2.53;;;;;;;14.72;100.00;100726.69;5028021;28;20041;-63
2023/07/19 01:01:05;;;;;;;7.65;2.28;;;;;;;14.70;100.00;100720.63;5028034;28;20042;-64
2023/07/19 01:03:32;;;;;;;7.10;2.30;;;;;;;14.68;100.00;100719.13;5026690;28;20070;-63
2023/07/19 01:09:46;;;;;;;7.50;2.40;;;;;;;14.61;100.00;100719.03;5015103;28;20422;-63
2023/07/19 01:12:13;;;;;;;4.65;2.55;;;;;;;14.58;100.00;100719.41;5025956;28;20056;-63
2023/07/19 01:14:39;;;;;;;7.18;2.58;;;;;;;14.51;100.00;100719.31;5026106;28;20057;-63
2023/07/19 01:17:05;;;;;;;9.70;2.75;;;;;;;14.44;100.00;100712.16;5026299;28;20126;-63
2023/07/19 01:19:32;;;;;;;5.72;2.30;;;;;;;14.40;100.00;100710.84;5027334;28;20057;-64
2023/07/19 01:21:59;;;;;;;9.57;2.70;;;;;;;14.33;100.00;100707.22;5027338;28;20042;-65
2023/07/19 01:24:27;;;;;;;5.07;2.50;;;;;;;14.35;100.00;100707.84;5028214;28;20045;-63
2023/07/19 01:26:53;;;;;;;9.20;2.58;;;;;;;14.33;100.00;100716.16;5026692;28;20080;-62
2023/07/19 01:29:29;;;;;;;8.13;2.80;;;;;;;14.32;100.00;100710.94;5026004;28;20057;-65
2023/07/19 01:31:56;;;;;;;4.15;2.42;;;;;;;14.32;100.00;100705.53;5041988;28;20060;-63
2023/07/19 01:34:23;;;;;;;7.93;2.72;;;;;;;14.28;100.00;100700.50;5045456;28;20112;-63
2023/07/19 01:36:49;;;;;;;8.48;3.08;;;;;;;14.24;100.00;100703.75;5040345;28;20081;-64
2023/07/19 01:39:16;;;;;;;6.20;2.40;;;;;;;14.21;100.00;100688.78;5026830;28;20050;-63
2023/07/19 01:41:42;;;;;;;13.15;2.88;;;;;;;14.16;100.00;100693.91;5026407;28;20103;-63
2023/07/19 01:44:09;;;;;;;6.70;2.85;;;;;;;14.13;100.00;100696.13;5025181;28;20049;-63
2023/07/19 01:46:38;;;;;;;7.97;2.83;;;;;;;14.08;100.00;100702.09;5026759;28;20038;-63
2023/07/19 01:49:05;;;;;;;6.10;2.47;;;;;;;14.05;100.00;100705.97;5026037;28;20046;-62
2023/07/19 01:51:32;;;;;;;10.57;2.63;;;;;;;14.05;100.00;100699.75;5026045;28;20045;-64
2023/07/19 01:53:59;;;;;;;5.05;2.40;;;;;;;13.98;100.00;100698.81;5025335;28;20049;-65
2023/07/19 01:56:25;;;;;;;10.98;2.90;;;;;;;13.95;100.00;100704.56;5026363;28;20050;-63
2023/07/19 01:58:53;;;;;;;10.93;3.53;;;;;;;13.96;100.00;100700.84;5025634;28;20516;-63
2023/07/19 02:01:20;;;;;;;5.32;2.40;;;;;;;13.95;100.00;100701.88;5024389;28;20050;-63
2023/07/19 02:03:47;;;;;;;10.20;2.70;;;;;;;13.91;100.00;100689.75;5025200;28;20046;-64
2023/07/19 02:06:13;;;;;;;4.20;2.13;;;;;;;13.83;100.00;100688.81;5026840;28;20126;-63
2023/07/19 02:08:40;;;;;;;5.88;2.55;;;;;;;13.82;100.00;100689.84;5024213;28;20052;-63
2023/07/19 02:11:06;;;;;;;5.47;2.55;;;;;;;13.81;100.00;100684.63;5023630;28;20053;-63
2023/07/19 02:13:33;;;;;;;6.68;3.00;;;;;;;13.77;100.00;100680.63;5024911;28;20042;-63
2023/07/19 02:15:59;;;;;;;10.40;2.50;;;;;;;13.70;100.00;100674.22;5025172;28;20050;-64
2023/07/19 02:18:26;;;;;;;4.20;2.50;;;;;;;13.66;100.00;100672.94;5026952;28;20057;-63
2023/07/19 02:20:55;;;;;;;6.70;2.47;;;;;;;13.59;100.00;100670.97;5027537;28;20489;-63
2023/07/19 02:23:21;;;;;;;6.68;2.42;;;;;;;13.55;100.00;100666.94;5026603;28;20429;-63
2023/07/19 02:25:51;;;;;;;7.35;2.45;;;;;;;13.53;100.00;100660.06;5028011;28;20080;-64
2023/07/19 02:28:18;;;;;;;11.05;2.05;;;;;;;13.55;100.00;100666.94;5028075;28;20046;-62
2023/07/19 02:30:46;;;;;;;3.80;2.20;;;;;;;13.57;100.00;100662.22;5031647;28;20103;-63
2023/07/19 02:33:13;;;;;;;7.50;2.40;;;;;;;13.53;100.00;100665.47;5045042;28;20045;-63
2023/07/19 02:35:41;;;;;;;4.82;2.20;;;;;;;13.54;100.00;100662.56;5045771;28;20076;-64
2023/07/19 02:38:09;;;;;;;5.15;2.65;;;;;;;13.53;100.00;100660.06;5045184;28;20099;-63
2023/07/19 02:40:36;;;;;;;8.27;2.47;;;;;;;13.53;100.00;100663.59;5046163;28;20050;-63
2023/07/19 02:43:03;;;;;;;5.65;2.35;;;;;;;13.53;100.00;100654.69;5049511;28;20421;-64
2023/07/19 02:45:29;;;;;;;6.40;2.50;;;;;;;13.49;100.00;100646.13;5049310;28;20029;-65
2023/07/19 02:47:56;;;;;;;5.00;2.67;;;;;;;13.50;100.00;100641.56;5047769;28;20095;-63
2023/07/19 02:50:22;;;;;;;8.30;2.25;;;;;;;13.51;100.00;100643.25;5048616;28;20076;-63
2023/07/19 02:52:49;;;;;;;10.45;3.63;;;;;;;13.54;100.00;100637.50;5047975;28;20164;-63
2023/07/19 02:55:16;;;;;;;9.13;2.78;;;;;;;13.57;100.00;100642.53;5048290;28;20052;-64
2023/07/19 02:57:42;;;;;;;7.15;2.90;;;;;;;13.57;100.00;100637.13;5047045;28;20049;-63
2023/07/19 03:00:10;;;;;;;5.05;2.72;;;;;;;13.57;100.00;100643.34;5048904;28;20049;-63
2023/07/19 03:02:37;;;;;;;7.13;2.38;;;;;;;13.59;100.00;100641.31;5049117;28;20068;-63
2023/07/19 03:05:04;;;;;;;4.45;1.92;;;;;;;13.63;100.00;100646.31;5049064;28;20080;-62
2023/07/19 03:07:31;;;;;;;4.15;2.50;;;;;;;13.66;100.00;100644.09;5048781;28;20087;-64
2023/07/19 03:09:59;;;;;;;5.38;2.35;;;;;;;13.70;100.00;100647.28;5047691;28;20041;-62
2023/07/19 03:12:25;;;;;;;3.15;1.88;;;;;;;13.71;100.00;100647.09;5048055;28;20041;-62
2023/07/19 03:14:52;;;;;;;4.40;2.08;;;;;;;13.72;100.00;100642.53;5046345;28;20049;-63
2023/07/19 03:17:18;;;;;;;8.13;2.20;;;;;;;13.71;100.00;100641.72;5035339;28;20413;-62
2023/07/19 03:19:48;;;;;;;6.80;2.17;;;;;;;13.68;100.00;100647.47;5025451;28;20041;-62
2023/07/19 03:22:14;;;;;;;10.27;2.50;;;;;;;13.58;100.00;100644.19;5025909;28;20056;-62
2023/07/19 03:24:41;;;;;;;6.32;2.28;;;;;;;13.63;100.00;100652.59;5024236;28;20038;-62
2023/07/19 03:27:08;;;;;;;14.48;2.60;;;;;;;13.64;100.00;100648.84;5026265;28;20068;-63
2023/07/19 03:29:34;;;;;;;5.82;2.00;;;;;;;13.66;100.00;100652.19;5025820;28;20053;-62
2023/07/19 03:32:01;;;;;;;5.28;1.90;;;;;;;13.68;100.00;100647.47;5043064;28;20041;-63
2023/07/19 03:34:28;;;;;;;4.25;2.55;;;;;;;13.69;100.00;100641.03;5047677;28;20563;-62
2023/07/19 03:36:54;;;;;;;9.52;2.30;;;;;;;13.73;100.00;100647.75;5047274;28;20108;-63
2023/07/19 03:39:21;;;;;;;5.03;2.05;;;;;;;13.73;100.00;100636.13;5047471;28;20073;-63
2023/07/19 03:41:48;;;;;;;7.65;2.45;;;;;;;13.73;100.00;100631.56;5048404;28;20049;-63
2023/07/19 03:44:15;;;;;;;11.23;3.70;;;;;;;13.77;100.00;100641.03;5040541;28;20108;-62
2023/07/19 03:46:41;;;;;;;8.88;2.50;;;;;;;13.77;100.00;100643.72;5027232;28;20046;-63
2023/07/19 03:49:08;;;;;;;5.85;2.03;;;;;;;13.78;100.00;100644.56;5028069;28;20073;-62
2023/07/19 03:51:35;;;;;;;4.80;2.17;;;;;;;13.84;100.00;100646.53;5027384;28;20045;-64
2023/07/19 03:54:01;;;;;;;7.22;2.45;;;;;;;13.83;100.00;100648.34;5026767;28;20099;-64
2023/07/19 03:56:28;;;;;;;6.22;2.20;;;;;;;13.87;100.00;100642.59;5028258;28;20050;-63
2023/07/19 03:58:56;;;;;;;5.72;2.50;;;;;;;13.88;100.00;100637.03;5027129;28;20061;-63
2023/07/19 04:01:22;;;;;;;6.32;2.08;;;;;;;13.94;100.00;100635.44;5026750;28;20069;-62
2023/07/19 04:03:49;;;;;;;5.60;2.88;;;;;;;13.96;100.00;100636.09;5027309;28;20061;-62
2023/07/19 04:06:18;;;;;;;5.68;2.47;;;;;;;13.87;100.00;100639.91;5027971;28;20050;-63
2023/07/19 04:08:44;;;;;;;5.22;2.30;;;;;;;13.89;100.00;100640.56;5028720;28;20056;-63
2023/07/19 04:11:11;;;;;;;10.32;2.20;;;;;;;13.92;100.00;100642.91;5027757;28;20046;-63
2023/07/19 04:13:37;;;;;;;5.18;2.13;;;;;;;13.93;100.00;100644.56;5026485;28;20045;-62
2023/07/19 04:16:04;;;;;;;5.53;2.38;;;;;;;13.96;100.00;100652.28;5026686;28;20046;-63
2023/07/19 04:18:31;;;;;;;9.20;2.50;;;;;;;14.00;100.00;100648.19;5028561;28;20046;-64
2023/07/19 04:20:58;;;;;;;6.45;2.30;;;;;;;14.03;100.00;100645.13;5028052;28;20045;-62
2023/07/19 04:23:25;;;;;;;4.15;1.90;;;;;;;14.01;100.00;100655.25;5027558;28;20044;-63
2023/07/19 04:25:53;;;;;;;9.90;2.10;;;;;;;14.05;100.00;100656.59;5028063;28;20049;-63
2023/07/19 04:28:19;;;;;;;7.25;2.35;;;;;;;14.00;100.00;100662.53;5028536;28;20084;-63
2023/07/19 04:30:46;;;;;;;4.22;2.00;;;;;;;13.98;100.00;100656.50;5034075;28;20049;-64
2023/07/19 04:33:15;;;;;;;5.43;2.30;;;;;;;13.97;100.00;100645.88;5047373;28;20052;-63
2023/07/19 04:35:42;;;;;;;6.72;2.17;;;;;;;14.04;100.00;100644.09;5048056;28;20054;-63
2023/07/19 04:38:09;;;;;;;4.80;2.15;;;;;;;14.10;100.00;100637.97;5048058;28;20099;-63
2023/07/19 04:40:35;;;;;;;5.65;2.30;;;;;;;14.14;100.00;100633.03;5048293;28;20049;-63
2023/07/19 04:43:04;;;;;;;7.43;2.85;;;;;;;14.14;100.00;100641.13;5048232;28;20045;-64
2023/07/19 04:45:30;;;;;;;11.88;2.67;;;;;;;14.19;100.00;100631.47;5047142;28;20053;-65
2023/07/19 04:47:57;;;;;;;5.80;2.47;;;;;;;14.21;100.00;100636.66;5047510;28;20045;-63
2023/07/19 04:50:24;;;;;;;4.65;2.08;;;;;;;14.26;100.00;100632.41;5047220;28;20084;-63
2023/07/19 04:52:53;;;;;;;9.23;3.10;;;;;;;14.30;100.00;100625.59;5046808;28;20056;-62
2023/07/19 04:55:21;;;;;;;6.53;2.50;;;;;;;14.37;100.00;100614.91;5046329;28;20045;-63
2023/07/19 04:57:47;;;;;;;14.77;2.53;;;;;;;14.41;100.00;100620.75;5047677;28;20088;-62
2023/07/19 05:00:15;;;;;;;6.82;2.17;;;;;;;14.50;100.00;100619.63;5046238;28;20049;-62
2023/07/19 05:02:44;;;;;;;11.93;2.40;;;;;;;14.50;100.00;100617.78;5046797;28;20060;-63
2023/07/19 05:05:12;;;;;;;8.18;2.10;;;;;;;14.57;100.00;100619.72;5046633;28;20113;-64
2023/07/19 05:07:39;;;;;;;11.07;2.30;;;;;;;14.57;100.00;100617.84;5046427;28;20072;-64
2023/07/19 05:10:07;;;;;;;5.80;2.75;;;;;;;14.61;100.00;100619.16;5046680;28;20071;-63
2023/07/19 05:12:34;;;;;;;11.90;4.07;;;;;;;14.67;100.00;100629.19;5046685;28;20536;-64
2023/07/19 05:15:00;;;;;;;11.88;5.47;;;;;;;14.80;100.00;100625.00;5047251;28;20041;-64
2023/07/19 05:17:27;;;;;;;9.13;4.18;;;;;;;14.83;100.00;100628.16;5047245;28;20060;-63
2023/07/19 05:19:54;;;;;;;17.65;4.68;;;;;;;14.88;100.00;100638.41;5047453;28;20093;-63
2023/07/19 05:22:21;;;;;;;9.10;2.97;;;;;;;15.01;100.00;100643.91;5042926;28;20050;-63
2023/07/19 05:24:48;;;;;;;10.45;3.38;;;;;;;15.05;100.00;100636.28;5025046;28;20482;-63
2023/07/19 05:27:17;;;;;;;29.92;3.85;;;;;;;15.15;100.00;100634.91;5025853;28;20038;-63
2023/07/19 05:29:43;;;;;;;23.85;3.13;;;;;;;15.20;100.00;100637.91;5025238;28;20181;-63
2023/07/19 05:32:10;;;;;;;16.30;3.28;;;;;;;15.27;100.00;100637.97;5042161;28;20045;-64
2023/07/19 05:34:37;;;;;;;19.58;3.75;;;;;;;15.39;100.00;100632.88;5046039;28;20060;-63
2023/07/19 05:37:05;;;;;;;14.25;3.00;;;;;;;15.43;100.00;100635.00;5045915;28;20049;-64
2023/07/19 05:39:35;;;;;;;12.88;2.88;;;;;;;15.48;100.00;100632.53;5045962;28;20077;-65
2023/07/19 05:42:02;;;;;;;9.57;2.90;;;;;;;15.60;100.00;100634.72;5045030;28;20045;-63
2023/07/19 05:44:29;;;;;;;14.13;2.50;;;;;;;15.70;100.00;100641.47;5046400;28;20041;-63
2023/07/19 05:46:56;;;;;;;13.70;3.13;;;;;;;15.75;100.00;100643.63;5045522;28;20038;-63
2023/07/19 05:49:23;;;;;;;13.07;2.78;;;;;;;15.92;94.51;100641.47;5045912;28;20069;-62
2023/07/19 05:51:50;;;;;;;10.52;2.90;;;;;;;15.88;93.26;100638.31;5045489;28;20045;-62
2023/07/19 05:54:16;;;;;;;10.90;2.58;;;;;;;15.97;96.96;100635.44;5045566;28;20057;-63
2023/07/19 05:56:44;;;;;;;15.00;2.88;;;;;;;16.07;94.11;100630.53;5045913;28;20045;-65
2023/07/19 05:59:11;;;;;;;8.70;3.17;;;;;;;16.30;85.33;100625.66;5045455;28;20049;-63
2023/07/19 06:01:37;;;;;;;11.48;2.83;;;;;;;16.21;88.85;100623.31;5046130;28;20049;-64
2023/07/19 06:04:05;;;;;;;7.85;2.55;;;;;;;16.34;87.71;100620.69;5045507;28;20110;-63
2023/07/19 06:06:33;;;;;;;6.93;2.40;;;;;;;16.32;85.81;100614.63;5046690;28;20069;-63
2023/07/19 06:09:05;;;;;;;6.95;2.97;;;;;;;16.36;87.07;100615.88;5045336;28;20057;-64
2023/07/19 06:11:32;;;;;;;8.65;2.47;;;;;;;16.59;85.48;100619.16;5045939;28;20037;-63
2023/07/19 06:13:59;;;;;;;6.85;2.80;;;;;;;16.57;83.30;100614.97;5046432;28;20050;-63
2023/07/19 06:16:26;;;;;;;8.32;2.83;;;;;;;16.80;80.37;100609.22;5048373;28;20495;-63
2023/07/19 06:18:52;;;;;;;9.93;3.10;;;;;;;16.76;79.51;100605.25;5050916;28;20065;-64
2023/07/19 06:21:19;;;;;;;7.15;2.80;;;;;;;16.70;82.91;100611.47;5049817;28;20107;-64
2023/07/19 06:23:46;;;;;;;10.15;3.08;;;;;;;16.83;79.81;100612.34;5050798;28;20053;-64
2023/07/19 06:26:14;;;;;;;10.57;2.88;;;;;;;17.02;79.02;100613.44;5050116;28;20056;-64
2023/07/19 06:28:40;;;;;;;7.03;2.63;;;;;;;17.18;77.11;100616.81;5050404;28;20076;-65
2023/07/19 06:31:07;;;;;;;3.72;2.13;;;;;;;17.32;74.26;100602.22;5041955;28;20072;-65
2023/07/19 06:33:33;;;;;;;9.60;2.40;;;;;;;17.22;73.20;100608.03;5029981;28;20053;-64
2023/07/19 06:36:00;;;;;;;10.98;2.78;;;;;;;17.20;73.62;100601.16;5029762;28;20038;-65
2023/07/19 06:38:27;;;;;;;9.05;3.10;;;;;;;17.44;73.18;100611.44;5031108;28;20072;-64
2023/07/19 06:41:03;;;;;;;11.15;2.90;;;;;;;17.49;72.63;100608.09;5032042;28;20058;-64
2023/07/19 06:43:30;;;;;;;5.25;2.20;;;;;;;17.63;71.51;100606.22;5031421;28;20494;-64
2023/07/19 06:45:57;;;;;;;12.20;2.60;;;;;;;17.77;71.03;100595.13;5031173;28;20096;-64
2023/07/19 06:48:24;;;;;;;6.95;2.53;;;;;;;17.73;72.37;100595.78;5029396;28;20053;-64
2023/07/19 06:50:51;;;;;;;6.85;2.65;;;;;;;17.66;73.00;100600.38;5031055;28;20070;-65
2023/07/19 06:53:17;;;;;;;5.75;2.72;;;;;;;17.62;73.61;100597.25;5031702;28;20046;-63
2023/07/19 06:55:44;;;;;;;9.63;2.90;;;;;;;17.44;73.58;100595.19;5030983;28;20048;-63
2023/07/19 06:58:10;;;;;;;7.55;2.78;;;;;;;17.51;72.92;100589.72;5030870;28;20029;-64
2023/07/19 07:00:38;;;;;;;7.03;3.25;;;;;;;17.81;71.47;100588.25;5028556;28;20045;-67
2023/07/19 07:03:04;;;;;;;7.95;2.72;;;;;;;17.93;68.34;100585.72;5029197;28;20046;-64
2023/07/19 07:05:33;;;;;;;10.43;2.00;;;;;;;18.05;66.28;100578.59;5032171;28;20069;-65
2023/07/19 07:07:59;;;;;;;6.00;2.38;;;;;;;18.06;65.59;100574.84;5031929;28;20050;-66
2023/07/19 07:10:26;;;;;;;4.43;2.25;;;;;;;18.25;65.44;100581.28;5032415;28;20042;-67
2023/07/19 07:12:52;;;;;;;8.27;2.80;;;;;;;18.31;66.06;100574.16;5031846;28;20579;-65
2023/07/19 07:15:19;;;;;;;8.35;2.67;;;;;;;18.35;65.72;100580.00;5030473;28;20053;-65
2023/07/19 07:17:47;;;;;;;7.32;2.42;;;;;;;18.46;66.34;100579.31;5032872;28;20092;-65
2023/07/19 07:20:14;;;;;;;15.07;3.08;;;;;;;18.58;65.36;100577.56;5031854;28;20061;-65
2023/07/19 07:22:41;;;;;;;12.93;2.75;;;;;;;18.83;63.92;100574.13;5031946;28;20045;-65
2023/07/19 07:25:08;;;;;;;14.18;3.03;;;;;;;19.25;62.71;100572.59;5030646;28;20054;-65
2023/07/19 07:27:35;;;;;;;13.90;2.53;;;;;;;19.33;61.90;100568.75;5030199;28;20069;-65
2023/07/19 07:30:02;;;;;;;14.38;3.25;;;;;;;19.36;62.44;100562.88;5030865;28;20073;-68
2023/07/19 07:32:30;;;;;;;10.80;2.80;;;;;;;19.50;62.30;100562.53;5050276;28;20049;-67
2023/07/19 07:34:57;;;;;;;6.68;2.67;;;;;;;19.79;60.13;100565.63;5050024;28;20060;-65
2023/07/19 07:37:23;;;;;;;8.82;2.25;;;;;;;19.83;59.22;100561.41;5051452;28;20064;-66
2023/07/19 07:39:50;;;;;;;11.35;2.92;;;;;;;19.92;57.99;100560.03;5050679;28;20104;-65
2023/07/19 07:42:19;;;;;;;8.57;2.42;;;;;;;19.94;58.11;100551.66;5049318;28;20053;-66
2023/07/19 07:44:45;;;;;;;11.80;3.40;;;;;;;20.01;58.94;100557.03;5050997;28;20041;-65
2023/07/19 07:47:14;;;;;;;8.20;2.90;;;;;;;19.99;58.07;100556.44;5051094;28;20052;-65
2023/07/19 07:49:41;;;;;;;7.93;2.63;;;;;;;20.30;57.70;100550.81;5050149;28;20037;-65
2023/07/19 07:52:11;;;;;;;9.63;2.70;;;;;;;20.44;57.25;100541.44;5050004;28;20045;-65
2023/07/19 07:54:38;;;;;;;9.45;2.60;;;;;;;20.78;56.01;100539.06;5050810;28;20049;-66
2023/07/19 07:57:05;;;;;;;5.97;2.65;;;;;;;21.18;54.48;100545.81;5050135;28;20045;-66
2023/07/19 07:59:32;;;;;;;10.15;2.40;;;;;;;21.12;54.05;100537.53;5050043;28;20049;-65
2023/07/19 08:01:59;;;;;;;8.45;2.60;;;;;;;21.07;53.22;100533.81;5050739;28;20041;-66
2023/07/19 08:04:29;;;;;;;6.68;2.22;;;;;;;21.48;52.56;100534.81;5050125;28;20041;-65
2023/07/19 08:06:56;;;;;;;7.63;2.58;;;;;;;21.60;51.46;100532.94;5051259;28;20148;-65
2023/07/19 08:09:23;;;;;;;8.07;1.98;;;;;;;21.50;50.84;100532.69;5051634;28;20041;-65
2023/07/19 08:11:50;;;;;;;5.03;2.15;;;;;;;21.55;50.51;100530.06;5050456;28;20049;-64
2023/07/19 08:14:19;;;;;;;7.03;2.35;;;;;;;21.45;49.81;100529.84;5049517;28;20049;-63
2023/07/19 08:16:48;;;;;;;9.85;2.08;;;;;;;21.33;51.20;100527.94;5052660;28;20101;-65
2023/07/19 08:19:15;;;;;;;7.20;2.22;;;;;;;21.18;51.82;100530.28;5051822;28;20056;-65
2023/07/19 08:21:42;;;;;;;5.53;2.42;;;;;;;21.11;51.45;100529.56;5052080;28;20049;-64
2023/07/19 08:24:09;;;;;;;6.47;2.58;;;;;;;20.89;52.18;100532.00;5050993;28;20092;-64
2023/07/19 08:26:35;;;;;;;7.82;2.70;;;;;;;20.88;52.49;100533.88;5049963;28;20041;-64
2023/07/19 08:29:02;;;;;;;8.38;2.78;;;;;;;21.03;52.33;100538.06;5050675;28;20053;-68
2023/07/19 08:31:28;;;;;;;5.78;2.47;;;;;;;21.26;51.86;100532.69;5040168;28;20050;-65
2023/07/19 08:33:57;;;;;;;7.13;2.20;;;;;;;21.51;51.53;100534.34;5032850;28;20057;-65
2023/07/19 08:36:23;;;;;;;6.07;2.33;;;;;;;21.59;51.26;100528.53;5032465;28;20060;-65
2023/07/19 08:38:50;;;;;;;5.50;2.45;;;;;;;21.82;50.49;100522.25;5032402;28;20054;-65
2023/07/19 08:41:23;;;;;;;5.95;2.38;;;;;;;21.82;50.14;100525.81;5031395;28;20072;-65
2023/07/19 08:43:54;;;;;;;7.70;2.22;;;;;;;21.83;50.15;100516.53;5030691;28;20050;-64
2023/07/19 08:46:21;;;;;;;9.48;2.13;;;;;;;22.18;49.34;100525.72;5030095;28;20054;-66
2023/07/19 08:48:49;;;;;;;8.50;2.10;;;;;;;22.28;49.25;100517.75;5030340;28;20090;-64
2023/07/19 08:51:18;;;;;;;5.53;2.30;;;;;;;22.38;48.58;100523.41;5029743;28;20073;-66
2023/07/19 08:53:45;;;;;;;6.40;2.60;;;;;;;22.28;48.80;100521.28;5030873;28;20049;-66
2023/07/19 08:56:13;;;;;;;7.97;2.33;;;;;;;22.25;48.78;100515.50;5030121;28;20081;-66
2023/07/19 08:58:43;;;;;;;8.32;2.42;;;;;;;22.37;47.56;100516.28;5030166;28;20053;-67
2023/07/19 09:01:11;;;;;;;6.35;2.00;;;;;;;22.50;46.08;100513.31;5030286;28;20050;-66
2023/07/19 09:03:38;;;;;;;6.00;2.40;;;;;;;22.73;45.23;100517.81;5029762;28;20081;-67
2023/07/19 09:06:05;;;;;;;11.35;2.83;;;;;;;22.77;45.24;100518.13;5030215;28;20049;-66
2023/07/19 09:08:39;;;;;;;4.20;2.22;;;;;;;22.90;44.42;100514.25;5030452;28;20053;-65
2023/07/19 09:11:07;;;;;;;5.10;2.28;;;;;;;23.38;43.63;100502.75;5030055;28;20046;-65
2023/07/19 09:13:36;;;;;;;5.13;2.30;;;;;;;23.55;43.04;100508.22;5030169;28;20050;-65
2023/07/19 09:16:04;;;;;;;4.32;2.03;;;;;;;23.58;42.31;100510.44;5030957;28;20066;-66
2023/07/19 09:18:37;;;;;;;6.97;1.75;;;;;;;23.52;42.28;100508.72;5029463;28;20041;-68
2023/07/19 09:21:05;;;;;;;4.65;2.22;;;;;;;22.96;42.90;100502.34;5030012;28;20056;-65
2023/07/19 09:23:36;;;;;;;4.20;2.40;;;;;;;22.59;43.37;100510.16;5029170;28;20033;-65
2023/07/19 09:26:04;;;;;;;;;;;;;;;22.52;43.71;100504.84;5030035;28;20141;-66
2023/07/19 09:28:33;;;;;;;14.68;2.13;;;;;;;22.83;42.86;100503.47;5029053;28;19921;-67
2023/07/19 09:31:02;;;;;;;2.65;1.88;;;;;;;23.37;42.27;100500.28;5036658;28;20072;-66
2023/07/19 09:33:54;;;;;;;8.77;2.10;;;;;;;23.85;41.20;100501.50;5049984;28;20065;-65
2023/07/19 09:36:21;;;;;;;4.82;2.20;;;;;;;24.15;40.13;100492.84;5050135;28;20072;-65
2023/07/19 09:38:49;;;;;;;4.00;2.10;;;;;;;24.27;40.12;100493.56;5050959;28;20060;-65
2023/07/19 09:41:16;;;;;;;6.22;1.90;;;;;;;23.83;40.66;100490.81;5050333;28;20068;-64
2023/07/19 09:43:46;;;;;;;9.07;2.05;;;;;;;23.42;41.30;100492.97;5050104;28;20051;-64
2023/07/19 09:46:13;;;;;;;6.03;1.95;;;;;;;23.29;41.15;100479.63;5049857;28;20056;-65
2023/07/19 09:48:39;;;;;;;4.15;1.83;;;;;;;23.34;40.80;100487.09;5050899;28;20037;-66
2023/07/19 09:51:07;;;;;;;3.28;1.85;;;;;;;23.50;40.54;100488.97;5050346;28;20056;-64
2023/07/19 09:53:37;;;;;;;4.30;1.80;;;;;;;23.81;40.28;100481.19;5050444;28;20056;-65
2023/07/19 09:56:04;;;;;;;8.63;2.03;;;;;;;24.25;39.68;100475.69;5050661;28;20121;-65
2023/07/19 09:58:33;;;;;;;10.52;2.15;;;;;;;25.00;38.54;100463.84;5049453;28;20359;-66
2023/07/19 10:00:59;;;;;;;5.53;2.55;;;;;;;24.88;38.21;100468.66;5050645;28;20056;-66
2023/07/19 10:03:26;;;;;;;9.27;2.30;;;;;;;24.90;38.15;100466.47;5051413;28;20052;-64
2023/07/19 10:05:57;;;;;;;10.02;2.55;;;;;;;25.11;37.60;100467.50;5050491;28;20045;-64
2023/07/19 10:08:23;;;;;;;12.65;2.00;;;;;;;25.13;37.41;100457.91;5051612;28;20055;-66
2023/07/19 10:10:58;;;;;;;6.93;2.50;;;;;;;24.30;39.14;100476.59;5048499;28;20073;-66
2023/07/19 10:13:32;;;;;;;7.30;2.00;;;;;;;23.44;40.57;100470.81;5049953;28;20120;-64
2023/07/19 10:15:59;;;;;;;5.18;2.10;;;;;;;22.78;41.72;100476.06;5049990;28;20034;-64
2023/07/19 10:18:27;;;;;;;6.63;2.22;;;;;;;22.46;42.77;100470.25;5049104;28;20050;-64
2023/07/19 10:21:02;;;;;;;4.40;2.03;;;;;;;22.47;42.79;100469.22;5051204;28;20468;-64
2023/07/19 10:23:30;;;;;;;6.65;2.22;;;;;;;22.47;42.83;100472.78;5051824;28;20052;-64
2023/07/19 10:26:04;;;;;;;3.53;2.50;;;;;;;22.36;43.15;100464.59;5051708;28;20097;-64
2023/07/19 10:28:33;;;;;;;15.65;2.70;;;;;;;22.13;43.66;100457.34;5050785;28;20068;-65
2023/07/19 10:31:00;;;;;;;3.58;2.05;;;;;;;22.08;43.40;100458.03;5042806;28;20050;-64
2023/07/19 10:33:47;;;;;;;7.15;2.15;;;;;;;22.25;43.44;100461.66;5030269;28;20077;-64
2023/07/19 10:36:14;;;;;;;5.40;2.10;;;;;;;22.36;43.42;100459.13;5030900;28;20068;-64
2023/07/19 10:38:41;;;;;;;12.77;2.58;;;;;;;22.76;42.94;100448.13;5031381;28;20050;-64
2023/07/19 10:41:08;;;;;;;5.88;2.28;;;;;;;22.70;42.38;100449.09;5031240;28;20034;-66
2023/07/19 10:43:36;;;;;;;4.10;1.67;;;;;;;22.68;42.51;100454.00;5031245;28;20041;-65
2023/07/19 10:46:08;;;;;;;10.18;2.50;;;;;;;22.56;42.85;100448.59;5031548;28;20073;-63
2023/07/19 10:48:36;;;;;;;9.27;2.38;;;;;;;22.90;43.00;100443.16;5031038;28;20037;-64
2023/07/19 10:51:08;;;;;;;5.38;1.98;;;;;;;23.22;42.43;100441.47;5030276;28;20046;-64
2023/07/19 10:53:50;;;;;;;8.50;2.47;;;;;;;23.18;42.20;100434.03;5030909;28;20114;-65
2023/07/19 10:56:18;;;;;;;5.22;2.42;;;;;;;23.43;41.79;100442.63;5030325;28;20053;-64
2023/07/19 10:58:45;;;;;;;7.70;2.45;;;;;;;24.20;40.63;100449.91;5030207;28;20520;-64
2023/07/19 11:01:12;;;;;;;15.50;1.90;;;;;;;24.89;39.20;100435.47;5030423;28;20073;-63
2023/07/19 11:03:42;;;;;;;11.43;2.08;;;;;;;25.76;37.80;100437.97;5034487;28;20101;-64
2023/07/19 11:06:10;;;;;;;4.40;1.90;;;;;;;25.90;37.02;100430.03;5034889;28;20049;-64
2023/07/19 11:08:36;;;;;;;5.13;2.03;;;;;;;26.46;35.89;100431.00;5034678;28;20050;-64
2023/07/19 11:11:03;;;;;;;4.22;2.30;;;;;;;25.95;36.16;100433.63;5032889;28;20051;-65
2023/07/19 11:13:34;;;;;;;6.53;1.73;;;;;;;25.79;36.21;100429.16;5034256;28;20046;-64
2023/07/19 11:16:01;;;;;;;5.97;2.20;;;;;;;25.68;36.40;100427.47;5033594;28;20084;-65
2023/07/19 11:18:28;;;;;;;4.05;2.20;;;;;;;25.92;36.24;100434.16;5034433;28;20076;-64
2023/07/19 11:21:00;;;;;;;5.55;1.80;;;;;;;25.63;36.13;100432.97;5033490;28;20111;-65
2023/07/19 11:23:28;;;;;;;4.13;2.08;;;;;;;24.88;37.06;100435.72;5033845;28;20072;-65
2023/07/19 11:26:11;;;;;;;11.02;2.25;;;;;;;23.92;39.02;100444.66;5033560;28;20041;-63